createdAt,value
2023-02-22T00:00:14.614Z,1021.64
2023-02-22T00:00:47.790Z,1021.54
2023-02-22T00:01:09.063Z,1021.43
2023-02-22T00:01:31.379Z,1021.43
2023-02-22T00:02:06.383Z,1021.43
2023-02-22T00:02:38.246Z,1021.43
2023-02-22T00:03:10.473Z,1021.43
2023-02-22T00:03:40.809Z,1021.33
2023-02-22T00:04:14.350Z,1021.33
2023-02-22T00:04:46.823Z,1021.64
2023-02-22T00:05:11.716Z,1021.43
2023-02-22T00:05:32.100Z,1021.43
2023-02-22T00:06:06.248Z,1021.43
2023-02-22T00:06:39.866Z,1021.43
2023-02-22T00:07:12.718Z,1021.43
2023-02-22T00:07:40.906Z,1021.33
2023-02-22T00:08:14.708Z,1021.33
2023-02-22T00:08:46.617Z,1021.43
2023-02-22T00:09:09.721Z,1021.33
2023-02-22T00:09:31.997Z,1021.33
2023-02-22T00:10:06.316Z,1021.33
2023-02-22T00:10:38.470Z,1021.54
2023-02-22T00:11:10.463Z,1021.54
2023-02-22T00:11:40.823Z,1021.64
2023-02-22T00:12:14.290Z,1021.64
2023-02-22T00:12:46.430Z,1021.33
2023-02-22T00:13:09.155Z,1021.54
2023-02-22T00:13:31.813Z,1021.54
2023-02-22T00:14:06.447Z,1021.54
2023-02-22T00:14:38.339Z,1021.33
2023-02-22T00:15:10.439Z,1021.33
2023-02-22T00:15:40.685Z,1021.23
2023-02-22T00:16:15.844Z,1021.23
2023-02-22T00:16:46.275Z,1021.33
2023-02-22T00:17:10.135Z,1021.54
2023-02-22T00:17:32.573Z,1021.54
2023-02-22T00:18:06.594Z,1021.54
2023-02-22T00:18:38.726Z,1021.33
2023-02-22T00:19:10.237Z,1021.33
2023-02-22T00:19:40.876Z,1021.33
2023-02-22T00:20:14.632Z,1021.33
2023-02-22T00:20:48.338Z,1021.23
2023-02-22T00:21:09.174Z,1021.03
2023-02-22T00:21:31.469Z,1021.03
2023-02-22T00:22:06.565Z,1021.03
2023-02-22T00:22:38.267Z,1021.33
2023-02-22T00:23:10.314Z,1021.33
2023-02-22T00:23:40.758Z,1021.13
2023-02-22T00:24:14.291Z,1021.13
2023-02-22T00:24:46.305Z,1021.23
2023-02-22T00:25:08.966Z,1021.13
2023-02-22T00:25:31.261Z,1021.13
2023-02-22T00:26:06.467Z,1021.13
2023-02-22T00:26:38.364Z,1021.23
2023-02-22T00:27:10.726Z,1021.23
2023-02-22T00:27:40.681Z,1021.23
2023-02-22T00:28:14.328Z,1021.23
2023-02-22T00:28:46.569Z,1021.23
2023-02-22T00:29:09.258Z,1021.43
2023-02-22T00:29:31.737Z,1021.43
2023-02-22T00:30:06.624Z,1021.43
2023-02-22T00:30:38.252Z,1021.03
2023-02-22T00:31:10.350Z,1021.03
2023-02-22T00:31:40.765Z,1021.23
2023-02-22T00:32:14.334Z,1021.23
2023-02-22T00:32:46.438Z,1021.23
2023-02-22T00:33:08.983Z,1021.13
2023-02-22T00:33:31.470Z,1021.13
2023-02-22T00:34:06.706Z,1021.13
2023-02-22T00:34:38.997Z,1021.03
2023-02-22T00:35:11.708Z,1021.03
2023-02-22T00:35:40.830Z,1021.03
2023-02-22T00:36:14.292Z,1021.03
2023-02-22T00:36:46.391Z,1021.03
2023-02-22T00:37:09.069Z,1021.13
2023-02-22T00:37:31.554Z,1021.13
2023-02-22T00:38:06.506Z,1021.13
2023-02-22T00:38:38.329Z,1021.23
2023-02-22T00:39:10.411Z,1021.23
2023-02-22T00:39:40.914Z,1020.93
2023-02-22T00:40:15.471Z,1020.93
2023-02-22T00:40:46.793Z,1021.23
2023-02-22T00:41:09.480Z,1021.03
2023-02-22T00:41:31.716Z,1021.03
2023-02-22T00:42:06.492Z,1021.03
2023-02-22T00:42:38.277Z,1021.23
2023-02-22T00:43:10.337Z,1021.23
2023-02-22T00:43:40.933Z,1021.13
2023-02-22T00:44:15.133Z,1021.13
2023-02-22T00:44:46.602Z,1021.03
2023-02-22T00:45:09.456Z,1021.23
2023-02-22T00:45:32.662Z,1021.23
2023-02-22T00:46:06.427Z,1021.23
2023-02-22T00:46:38.692Z,1021.13
2023-02-22T00:47:10.504Z,1021.13
2023-02-22T00:47:41.546Z,1021.23
2023-02-22T00:48:14.491Z,1021.23
2023-02-22T00:48:46.615Z,1021.23
2023-02-22T00:49:09.561Z,1021.03
2023-02-22T00:49:31.837Z,1021.03
2023-02-22T00:50:06.475Z,1021.03
2023-02-22T00:50:39.676Z,1020.93
2023-02-22T00:51:11.336Z,1020.93
2023-02-22T00:51:40.917Z,1021.13
2023-02-22T00:52:14.469Z,1021.13
2023-02-22T00:52:46.697Z,1020.93
2023-02-22T00:53:09.274Z,1021.23
2023-02-22T00:53:32.101Z,1021.23
2023-02-22T00:54:06.665Z,1021.23
2023-02-22T00:54:38.612Z,1021.03
2023-02-22T00:55:10.465Z,1021.03
2023-02-22T00:55:41.519Z,1020.93
2023-02-22T00:56:14.187Z,1020.93
2023-02-22T00:56:48.169Z,1021.03
2023-02-22T00:57:10.869Z,1021.03
2023-02-22T00:57:33.273Z,1021.03
2023-02-22T00:58:06.888Z,1021.03
2023-02-22T00:58:38.375Z,1021.23
2023-02-22T00:59:11.130Z,1021.23
2023-02-22T00:59:41.943Z,1021.13
2023-02-22T01:00:15.452Z,1021.13
2023-02-22T01:00:47.902Z,1021.03
2023-02-22T01:01:09.189Z,1021.03
2023-02-22T01:01:31.974Z,1021.03
2023-02-22T01:02:06.576Z,1021.03
2023-02-22T01:02:39.208Z,1020.83
2023-02-22T01:03:10.402Z,1020.83
2023-02-22T01:03:42.637Z,1021.13
2023-02-22T01:04:14.444Z,1021.13
2023-02-22T01:04:46.360Z,1020.93
2023-02-22T01:05:12.506Z,1021.03
2023-02-22T01:05:31.306Z,1021.03
2023-02-22T01:06:06.522Z,1021.03
2023-02-22T01:06:38.332Z,1021.03
2023-02-22T01:07:14.131Z,1021.03
2023-02-22T01:07:42.995Z,1021.03
2023-02-22T01:08:14.478Z,1021.03
2023-02-22T01:08:46.565Z,1020.83
2023-02-22T01:09:09.131Z,1020.93
2023-02-22T01:09:33.167Z,1020.93
2023-02-22T01:10:06.485Z,1020.93
2023-02-22T01:10:39.382Z,1021.03
2023-02-22T01:11:10.650Z,1021.03
2023-02-22T01:11:41.476Z,1021.03
2023-02-22T01:12:14.306Z,1021.03
2023-02-22T01:12:46.370Z,1020.72
2023-02-22T01:13:09.479Z,1020.93
2023-02-22T01:13:31.317Z,1020.93
2023-02-22T01:14:06.308Z,1020.93
2023-02-22T01:14:38.479Z,1020.83
2023-02-22T01:15:11.065Z,1020.83
2023-02-22T01:15:41.189Z,1021.03
2023-02-22T01:16:16.450Z,1021.03
2023-02-22T01:16:46.953Z,1020.83
2023-02-22T01:17:09.087Z,1021.13
2023-02-22T01:17:31.798Z,1021.13
2023-02-22T01:18:07.095Z,1021.13
2023-02-22T01:18:41.371Z,1020.83
2023-02-22T01:19:04.163Z,1020.83
2023-02-22T01:19:40.888Z,1020.93
2023-02-22T01:20:14.253Z,1020.93
2023-02-22T01:20:46.426Z,1020.62
2023-02-22T01:21:09.238Z,1020.72
2023-02-22T01:21:31.738Z,1020.72
2023-02-22T01:22:06.372Z,1020.72
2023-02-22T01:22:38.253Z,1020.72
2023-02-22T01:23:10.683Z,1020.72
2023-02-22T01:23:40.891Z,1020.83
2023-02-22T01:24:14.310Z,1020.83
2023-02-22T01:24:46.279Z,1020.72
2023-02-22T01:25:09.090Z,1020.72
2023-02-22T01:25:31.563Z,1020.72
2023-02-22T01:26:06.316Z,1020.72
2023-02-22T01:26:38.328Z,1020.72
2023-02-22T01:27:10.225Z,1020.72
2023-02-22T01:27:40.692Z,1020.72
2023-02-22T01:28:14.122Z,1020.72
2023-02-22T01:28:46.423Z,1021.03
2023-02-22T01:29:10.061Z,1020.72
2023-02-22T01:29:32.414Z,1020.72
2023-02-22T01:30:06.708Z,1020.72
2023-02-22T01:30:38.476Z,1020.62
2023-02-22T01:31:10.369Z,1020.62
2023-02-22T01:31:40.736Z,1020.62
2023-02-22T01:32:14.359Z,1020.62
2023-02-22T01:32:46.464Z,1020.62
2023-02-22T01:33:11.334Z,1020.62
2023-02-22T01:33:31.259Z,1020.62
2023-02-22T01:34:06.179Z,1020.62
2023-02-22T01:34:38.301Z,1020.62
2023-02-22T01:35:10.386Z,1020.62
2023-02-22T01:35:40.707Z,1020.62
2023-02-22T01:36:14.188Z,1020.62
2023-02-22T01:36:46.185Z,1020.62
2023-02-22T01:37:08.884Z,1020.72
2023-02-22T01:37:31.412Z,1020.72
2023-02-22T01:38:06.308Z,1020.72
2023-02-22T01:38:38.154Z,1020.72
2023-02-22T01:39:10.325Z,1020.72
2023-02-22T01:39:42.146Z,1020.72
2023-02-22T01:40:15.438Z,1020.72
2023-02-22T01:40:46.577Z,1020.52
2023-02-22T01:41:10.379Z,1020.62
2023-02-22T01:41:31.717Z,1020.62
2023-02-22T01:42:06.342Z,1020.62
2023-02-22T01:42:38.832Z,1020.62
2023-02-22T01:43:10.556Z,1020.62
2023-02-22T01:43:40.815Z,1020.62
2023-02-22T01:44:14.743Z,1020.62
2023-02-22T01:44:46.252Z,1020.52
2023-02-22T01:45:10.097Z,1020.83
2023-02-22T01:45:32.472Z,1020.83
2023-02-22T01:46:07.370Z,1020.83
2023-02-22T01:46:39.831Z,1020.52
2023-02-22T01:47:10.328Z,1020.52
2023-02-22T01:47:40.752Z,1020.72
2023-02-22T01:48:14.661Z,1020.72
2023-02-22T01:48:46.170Z,1020.52
2023-02-22T01:49:08.790Z,1020.52
2023-02-22T01:49:31.191Z,1020.52
2023-02-22T01:50:07.255Z,1020.52
2023-02-22T01:50:38.387Z,1020.62
2023-02-22T01:51:10.524Z,1020.62
2023-02-22T01:51:41.011Z,1020.72
2023-02-22T01:52:14.463Z,1020.72
2023-02-22T01:52:47.772Z,1020.62
2023-02-22T01:53:09.175Z,1020.62
2023-02-22T01:53:31.578Z,1020.62
2023-02-22T01:54:07.914Z,1020.62
2023-02-22T01:54:38.240Z,1020.52
2023-02-22T01:55:10.446Z,1020.52
2023-02-22T01:55:42.198Z,1020.52
2023-02-22T01:56:14.190Z,1020.52
2023-02-22T01:56:46.122Z,1020.72
2023-02-22T01:57:09.096Z,1020.62
2023-02-22T01:57:31.241Z,1020.62
2023-02-22T01:58:08.769Z,1020.62
2023-02-22T01:58:32.919Z,1020.52
2023-02-22T01:59:11.080Z,1020.52
2023-02-22T01:59:41.710Z,1020.62
2023-02-22T02:00:15.118Z,1020.62
2023-02-22T02:00:48.106Z,1020.62
2023-02-22T02:01:10.645Z,1020.42
2023-02-22T02:01:35.086Z,1020.42
2023-02-22T02:02:06.673Z,1020.42
2023-02-22T02:02:39.499Z,1020.52
2023-02-22T02:03:10.345Z,1020.52
2023-02-22T02:03:43.396Z,1020.52
2023-02-22T02:04:14.798Z,1020.52
2023-02-22T02:04:48.607Z,1020.32
2023-02-22T02:05:11.697Z,1020.42
2023-02-22T02:05:34.323Z,1020.42
2023-02-22T02:06:07.026Z,1020.42
2023-02-22T02:06:39.323Z,1020.62
2023-02-22T02:07:20.113Z,1020.32
2023-02-22T02:07:37.248Z,1020.32
2023-02-22T02:08:14.501Z,1020.32
2023-02-22T02:08:46.159Z,1020.52
2023-02-22T02:09:10.458Z,1020.32
2023-02-22T02:09:31.260Z,1020.32
2023-02-22T02:10:06.339Z,1020.32
2023-02-22T02:10:38.559Z,1020.42
2023-02-22T02:11:10.865Z,1020.42
2023-02-22T02:11:41.365Z,1020.52
2023-02-22T02:12:14.419Z,1020.52
2023-02-22T02:12:46.773Z,1020.42
2023-02-22T02:13:11.144Z,1020.52
2023-02-22T02:13:32.569Z,1020.52
2023-02-22T02:14:06.145Z,1020.52
2023-02-22T02:14:38.327Z,1020.42
2023-02-22T02:15:11.377Z,1020.42
2023-02-22T02:15:40.705Z,1020.52
2023-02-22T02:16:14.472Z,1020.52
2023-02-22T02:16:46.357Z,1020.32
2023-02-22T02:17:11.750Z,1020.62
2023-02-22T02:17:31.635Z,1020.62
2023-02-22T02:18:06.542Z,1020.62
2023-02-22T02:18:38.204Z,1020.42
2023-02-22T02:19:11.950Z,1020.42
2023-02-22T02:19:41.300Z,1020.32
2023-02-22T02:20:14.271Z,1020.32
2023-02-22T02:20:46.286Z,1020.22
2023-02-22T02:21:09.447Z,1020.42
2023-02-22T02:21:31.834Z,1020.42
2023-02-22T02:22:06.367Z,1020.42
2023-02-22T02:22:38.506Z,1020.32
2023-02-22T02:23:13.257Z,1020.32
2023-02-22T02:23:40.716Z,1020.11
2023-02-22T02:24:14.707Z,1020.11
2023-02-22T02:24:46.154Z,1020.22
2023-02-22T02:25:09.242Z,1020.42
2023-02-22T02:25:31.794Z,1020.42
2023-02-22T02:26:06.335Z,1020.42
2023-02-22T02:26:38.190Z,1020.22
2023-02-22T02:27:10.283Z,1020.22
2023-02-22T02:27:40.913Z,1020.22
2023-02-22T02:28:14.374Z,1020.22
2023-02-22T02:28:46.216Z,1020.32
2023-02-22T02:29:09.397Z,1020.32
2023-02-22T02:29:31.777Z,1020.32
2023-02-22T02:30:06.770Z,1020.32
2023-02-22T02:30:38.382Z,1020.32
2023-02-22T02:31:10.164Z,1020.32
2023-02-22T02:31:40.997Z,1020.11
2023-02-22T02:32:17.981Z,1020.11
2023-02-22T02:32:46.402Z,1020.11
2023-02-22T02:33:10.281Z,1020.11
2023-02-22T02:33:32.447Z,1020.11
2023-02-22T02:34:06.318Z,1020.11
2023-02-22T02:34:38.788Z,1020.11
2023-02-22T02:35:10.521Z,1020.11
2023-02-22T02:35:40.916Z,1020.11
2023-02-22T02:36:14.964Z,1020.11
2023-02-22T02:36:46.582Z,1020.11
2023-02-22T02:37:09.475Z,1019.91
2023-02-22T02:37:31.848Z,1019.91
2023-02-22T02:38:06.187Z,1019.91
2023-02-22T02:38:38.318Z,1020.01
2023-02-22T02:39:10.296Z,1020.01
2023-02-22T02:39:40.690Z,1020.01
2023-02-22T02:40:15.584Z,1020.01
2023-02-22T02:40:48.037Z,1020.11
2023-02-22T02:41:09.299Z,1020.01
2023-02-22T02:41:31.546Z,1020.01
2023-02-22T02:42:06.230Z,1020.01
2023-02-22T02:42:38.590Z,1020.01
2023-02-22T02:43:10.467Z,1020.01
2023-02-22T02:43:40.846Z,1020.22
2023-02-22T02:44:16.533Z,1020.22
2023-02-22T02:44:46.180Z,1020.22
2023-02-22T02:45:09.057Z,1020.22
2023-02-22T02:45:31.338Z,1020.22
2023-02-22T02:46:06.149Z,1020.22
2023-02-22T02:46:38.373Z,1020.11
2023-02-22T02:47:10.248Z,1020.11
2023-02-22T02:47:47.751Z,1020.11
2023-02-22T02:48:14.194Z,1020.11
2023-02-22T02:48:46.294Z,1020.11
2023-02-22T02:49:08.972Z,1020.22
2023-02-22T02:49:31.261Z,1020.22
2023-02-22T02:50:06.483Z,1020.22
2023-02-22T02:50:38.499Z,1020.01
2023-02-22T02:51:10.340Z,1020.01
2023-02-22T02:51:41.171Z,1020.01
2023-02-22T02:52:14.309Z,1020.01
2023-02-22T02:52:46.319Z,1019.91
2023-02-22T02:53:09.056Z,1019.81
2023-02-22T02:53:31.924Z,1019.81
2023-02-22T02:54:06.447Z,1019.81
2023-02-22T02:54:32.439Z,1020.11
2023-02-22T02:55:10.887Z,1020.11
2023-02-22T02:55:41.745Z,1019.91
2023-02-22T02:56:14.277Z,1019.91
2023-02-22T02:56:46.452Z,1019.91
2023-02-22T02:57:09.240Z,1020.11
2023-02-22T02:57:33.074Z,1020.11
2023-02-22T02:58:10.466Z,1020.11
2023-02-22T02:58:39.356Z,1020.01
2023-02-22T02:59:12.481Z,1020.01
2023-02-22T02:59:42.280Z,1020.01
2023-02-22T03:00:19.507Z,1020.11
2023-02-22T03:00:40.113Z,1020.11
2023-02-22T03:01:12.429Z,1019.81
2023-02-22T03:01:53.448Z,1019.81
2023-02-22T03:02:13.641Z,1019.81
2023-02-22T03:02:36.475Z,1019.81
2023-02-22T03:03:11.030Z,1019.81
2023-02-22T03:03:42.082Z,1020.01
2023-02-22T03:04:14.435Z,1020.01
2023-02-22T03:04:46.301Z,1019.81
2023-02-22T03:05:14.603Z,1019.91
2023-02-22T03:05:33.022Z,1019.91
2023-02-22T03:06:09.826Z,1020.11
2023-02-22T03:06:32.260Z,1020.11
2023-02-22T03:07:10.778Z,1020.11
2023-02-22T03:07:40.751Z,1019.81
2023-02-22T03:08:17.792Z,1019.81
2023-02-22T03:08:46.298Z,1019.81
2023-02-22T03:09:09.230Z,1019.91
2023-02-22T03:09:32.113Z,1019.91
2023-02-22T03:10:06.181Z,1019.91
2023-02-22T03:10:38.111Z,1020.11
2023-02-22T03:11:10.682Z,1020.11
2023-02-22T03:11:40.926Z,1019.91
2023-02-22T03:12:14.153Z,1019.91
2023-02-22T03:12:48.736Z,1019.91
2023-02-22T03:13:09.507Z,1020.01
2023-02-22T03:13:32.054Z,1020.01
2023-02-22T03:14:06.260Z,1020.01
2023-02-22T03:14:41.904Z,1019.91
2023-02-22T03:15:10.455Z,1019.91
2023-02-22T03:15:40.742Z,1020.01
2023-02-22T03:16:14.283Z,1020.01
2023-02-22T03:16:47.946Z,1019.74
2023-02-22T03:17:09.364Z,1019.74
2023-02-22T03:17:31.641Z,1019.74
2023-02-22T03:18:06.766Z,1019.74
2023-02-22T03:18:38.545Z,1019.81
2023-02-22T03:19:10.224Z,1019.81
2023-02-22T03:19:40.710Z,1019.81
2023-02-22T03:20:14.495Z,1019.81
2023-02-22T03:20:46.328Z,1019.64
2023-02-22T03:21:09.033Z,1019.74
2023-02-22T03:21:31.378Z,1019.74
2023-02-22T03:22:06.462Z,1019.74
2023-02-22T03:22:38.514Z,1019.74
2023-02-22T03:23:10.405Z,1019.74
2023-02-22T03:23:40.709Z,1019.81
2023-02-22T03:24:14.299Z,1019.81
2023-02-22T03:24:46.246Z,1019.74
2023-02-22T03:25:09.807Z,1019.64
2023-02-22T03:25:32.140Z,1019.64
2023-02-22T03:26:06.600Z,1019.64
2023-02-22T03:26:38.141Z,1019.74
2023-02-22T03:27:10.295Z,1019.74
2023-02-22T03:27:40.797Z,1019.74
2023-02-22T03:28:14.289Z,1019.74
2023-02-22T03:28:46.199Z,1019.74
2023-02-22T03:29:08.807Z,1019.74
2023-02-22T03:29:31.148Z,1019.74
2023-02-22T03:30:07.012Z,1019.74
2023-02-22T03:30:38.188Z,1019.81
2023-02-22T03:31:10.979Z,1019.81
2023-02-22T03:31:36.164Z,1019.81
2023-02-22T03:32:15.659Z,1019.81
2023-02-22T03:32:46.731Z,1019.81
2023-02-22T03:33:09.522Z,1019.81
2023-02-22T03:33:32.710Z,1019.81
2023-02-22T03:34:06.526Z,1019.81
2023-02-22T03:34:38.365Z,1019.81
2023-02-22T03:35:11.114Z,1019.81
2023-02-22T03:35:40.829Z,1019.74
2023-02-22T03:36:14.609Z,1019.74
2023-02-22T03:36:46.455Z,1019.54
2023-02-22T03:37:09.186Z,1019.74
2023-02-22T03:37:31.713Z,1019.74
2023-02-22T03:38:06.961Z,1019.74
2023-02-22T03:38:39.455Z,1019.74
2023-02-22T03:39:10.525Z,1019.74
2023-02-22T03:39:40.950Z,1019.64
2023-02-22T03:40:17.266Z,1019.74
2023-02-22T03:40:48.751Z,1019.74
2023-02-22T03:41:09.505Z,1019.64
2023-02-22T03:41:31.870Z,1019.64
2023-02-22T03:42:08.150Z,1019.64
2023-02-22T03:42:39.769Z,1019.74
2023-02-22T03:43:10.698Z,1019.74
2023-02-22T03:43:40.782Z,1019.74
2023-02-22T03:44:14.547Z,1019.74
2023-02-22T03:44:46.198Z,1019.64
2023-02-22T03:45:09.047Z,1019.81
2023-02-22T03:45:31.610Z,1019.81
2023-02-22T03:46:08.517Z,1019.81
2023-02-22T03:46:39.924Z,1019.81
2023-02-22T03:47:10.649Z,1019.81
2023-02-22T03:47:41.473Z,1019.74
2023-02-22T03:48:15.330Z,1019.74
2023-02-22T03:48:46.859Z,1019.74
2023-02-22T03:49:11.047Z,1019.54
2023-02-22T03:49:32.503Z,1019.54
2023-02-22T03:50:06.662Z,1019.54
2023-02-22T03:50:39.000Z,1019.81
2023-02-22T03:51:10.316Z,1019.81
2023-02-22T03:51:41.042Z,1019.81
2023-02-22T03:52:14.746Z,1019.81
2023-02-22T03:52:46.789Z,1019.81
2023-02-22T03:53:13.019Z,1020.01
2023-02-22T03:53:31.995Z,1020.01
2023-02-22T03:54:06.345Z,1020.01
2023-02-22T03:54:38.346Z,1019.81
2023-02-22T03:55:14.809Z,1019.81
2023-02-22T03:55:41.159Z,1019.74
2023-02-22T03:56:16.236Z,1019.74
2023-02-22T03:56:46.810Z,1019.64
2023-02-22T03:57:10.010Z,1019.64
2023-02-22T03:57:31.887Z,1019.64
2023-02-22T03:58:07.130Z,1019.64
2023-02-22T03:58:38.339Z,1019.64
2023-02-22T03:59:12.028Z,1019.91
2023-02-22T03:59:42.887Z,1019.91
2023-02-22T04:00:14.887Z,1019.91
2023-02-22T04:00:47.945Z,1019.81
2023-02-22T04:01:09.139Z,1019.64
2023-02-22T04:01:32.454Z,1019.64
2023-02-22T04:02:06.334Z,1019.64
2023-02-22T04:02:38.901Z,1019.54
2023-02-22T04:03:10.384Z,1019.54
2023-02-22T04:03:40.936Z,1019.64
2023-02-22T04:04:15.059Z,1019.64
2023-02-22T04:04:47.007Z,1019.81
2023-02-22T04:05:11.043Z,1019.81
2023-02-22T04:05:32.748Z,1019.81
2023-02-22T04:06:08.374Z,1019.64
2023-02-22T04:06:38.308Z,1019.64
2023-02-22T04:07:10.481Z,1019.64
2023-02-22T04:07:41.584Z,1019.74
2023-02-22T04:08:15.029Z,1019.74
2023-02-22T04:08:46.996Z,1019.81
2023-02-22T04:09:10.535Z,1019.74
2023-02-22T04:09:33.132Z,1019.74
2023-02-22T04:10:06.778Z,1019.74
2023-02-22T04:10:38.881Z,1019.64
2023-02-22T04:11:12.363Z,1019.74
2023-02-22T04:11:43.966Z,1019.74
2023-02-22T04:12:14.457Z,1019.74
2023-02-22T04:12:46.994Z,1019.81
2023-02-22T04:13:09.631Z,1019.64
2023-02-22T04:13:32.380Z,1019.64
2023-02-22T04:14:06.451Z,1019.64
2023-02-22T04:14:38.680Z,1019.64
2023-02-22T04:15:10.681Z,1019.64
2023-02-22T04:15:41.039Z,1019.81
2023-02-22T04:16:14.545Z,1019.81
2023-02-22T04:16:46.520Z,1019.74
2023-02-22T04:17:09.242Z,1019.91
2023-02-22T04:17:37.244Z,1019.91
2023-02-22T04:18:07.548Z,1019.91
2023-02-22T04:18:38.780Z,1019.64
2023-02-22T04:19:10.427Z,1019.64
2023-02-22T04:19:41.164Z,1019.64
2023-02-22T04:20:14.177Z,1019.64
2023-02-22T04:20:48.249Z,1019.74
2023-02-22T04:21:09.022Z,1019.64
2023-02-22T04:21:31.388Z,1019.64
2023-02-22T04:22:06.464Z,1019.64
2023-02-22T04:22:38.621Z,1019.54
2023-02-22T04:23:12.746Z,1019.54
2023-02-22T04:23:40.957Z,1019.74
2023-02-22T04:24:14.935Z,1019.74
2023-02-22T04:24:46.479Z,1019.54
2023-02-22T04:25:09.053Z,1019.44
2023-02-22T04:25:31.720Z,1019.44
2023-02-22T04:26:06.304Z,1019.44
2023-02-22T04:26:38.468Z,1019.64
2023-02-22T04:27:11.496Z,1019.64
2023-02-22T04:27:41.436Z,1019.44
2023-02-22T04:28:14.212Z,1019.44
2023-02-22T04:28:46.291Z,1019.44
2023-02-22T04:29:09.009Z,1019.64
2023-02-22T04:29:31.664Z,1019.64
2023-02-22T04:30:07.457Z,1019.64
2023-02-22T04:30:38.432Z,1019.64
2023-02-22T04:31:10.670Z,1019.64
2023-02-22T04:31:40.901Z,1019.54
2023-02-22T04:32:16.026Z,1019.54
2023-02-22T04:32:46.871Z,1019.54
2023-02-22T04:33:10.014Z,1019.44
2023-02-22T04:33:32.444Z,1019.44
2023-02-22T04:34:06.647Z,1019.44
2023-02-22T04:34:41.591Z,1019.54
2023-02-22T04:35:04.045Z,1019.54
2023-02-22T04:35:41.023Z,1019.81
2023-02-22T04:36:14.275Z,1019.81
2023-02-22T04:36:46.145Z,1019.54
2023-02-22T04:37:08.942Z,1019.54
2023-02-22T04:37:31.349Z,1019.54
2023-02-22T04:38:06.564Z,1019.54
2023-02-22T04:38:38.273Z,1019.64
2023-02-22T04:39:10.164Z,1019.64
2023-02-22T04:39:40.811Z,1019.64
2023-02-22T04:40:14.233Z,1019.64
2023-02-22T04:40:46.173Z,1019.64
2023-02-22T04:41:09.302Z,1019.64
2023-02-22T04:41:32.548Z,1019.64
2023-02-22T04:42:06.205Z,1019.64
2023-02-22T04:42:38.399Z,1019.54
2023-02-22T04:43:10.135Z,1019.54
2023-02-22T04:43:40.803Z,1019.44
2023-02-22T04:44:14.317Z,1019.44
2023-02-22T04:44:46.510Z,1019.54
2023-02-22T04:45:10.246Z,1019.54
2023-02-22T04:45:32.500Z,1019.54
2023-02-22T04:46:06.321Z,1019.54
2023-02-22T04:46:38.433Z,1019.64
2023-02-22T04:47:10.364Z,1019.64
2023-02-22T04:47:40.749Z,1019.64
2023-02-22T04:48:14.323Z,1019.64
2023-02-22T04:48:46.120Z,1019.44
2023-02-22T04:49:08.848Z,1019.64
2023-02-22T04:49:33.036Z,1019.64
2023-02-22T04:50:06.320Z,1019.64
2023-02-22T04:50:38.546Z,1019.64
2023-02-22T04:51:10.169Z,1019.64
2023-02-22T04:51:40.865Z,1019.64
2023-02-22T04:52:14.384Z,1019.64
2023-02-22T04:52:46.411Z,1019.54
2023-02-22T04:53:09.077Z,1019.54
2023-02-22T04:53:33.833Z,1019.54
2023-02-22T04:54:06.150Z,1019.54
2023-02-22T04:54:38.257Z,1019.44
2023-02-22T04:55:10.223Z,1019.44
2023-02-22T04:55:40.757Z,1019.44
2023-02-22T04:56:14.263Z,1019.44
2023-02-22T04:56:46.301Z,1019.44
2023-02-22T04:57:08.993Z,1019.44
2023-02-22T04:57:33.905Z,1019.44
2023-02-22T04:58:09.162Z,1019.44
2023-02-22T04:58:38.332Z,1019.44
2023-02-22T04:59:10.222Z,1019.44
2023-02-22T04:59:40.756Z,1019.34
2023-02-22T05:00:16.148Z,1019.34
2023-02-22T05:00:48.653Z,1019.34
2023-02-22T05:01:09.810Z,1019.54
2023-02-22T05:01:32.054Z,1019.54
2023-02-22T05:02:07.862Z,1019.54
2023-02-22T05:02:38.330Z,1019.34
2023-02-22T05:03:10.318Z,1019.34
2023-02-22T05:03:40.806Z,1019.44
2023-02-22T05:04:14.201Z,1019.44
2023-02-22T05:04:47.730Z,1019.44
2023-02-22T05:05:09.112Z,1019.34
2023-02-22T05:05:31.328Z,1019.34
2023-02-22T05:06:06.386Z,1019.34
2023-02-22T05:06:38.233Z,1019.34
2023-02-22T05:07:10.247Z,1019.34
2023-02-22T05:07:40.724Z,1019.34
2023-02-22T05:08:14.362Z,1019.34
2023-02-22T05:08:46.335Z,1019.23
2023-02-22T05:09:09.673Z,1019.44
2023-02-22T05:09:31.939Z,1019.44
2023-02-22T05:10:06.479Z,1019.44
2023-02-22T05:10:38.499Z,1019.44
2023-02-22T05:11:10.188Z,1019.44
2023-02-22T05:11:40.753Z,1019.44
2023-02-22T05:12:14.222Z,1019.44
2023-02-22T05:12:46.146Z,1019.23
2023-02-22T05:13:09.383Z,1019.23
2023-02-22T05:13:31.941Z,1019.23
2023-02-22T05:14:06.175Z,1019.23
2023-02-22T05:14:38.454Z,1019.44
2023-02-22T05:15:10.433Z,1019.44
2023-02-22T05:15:41.287Z,1019.34
2023-02-22T05:16:14.282Z,1019.34
2023-02-22T05:16:46.748Z,1019.34
2023-02-22T05:17:09.563Z,1019.54
2023-02-22T05:17:31.870Z,1019.54
2023-02-22T05:18:06.435Z,1019.54
2023-02-22T05:18:38.267Z,1019.34
2023-02-22T05:19:10.257Z,1019.34
2023-02-22T05:19:41.080Z,1019.23
2023-02-22T05:20:14.538Z,1019.23
2023-02-22T05:20:46.155Z,1019.23
2023-02-22T05:21:08.958Z,1019.34
2023-02-22T05:21:31.198Z,1019.34
2023-02-22T05:22:06.431Z,1019.34
2023-02-22T05:22:41.341Z,1019.44
2023-02-22T05:23:10.537Z,1019.44
2023-02-22T05:23:40.870Z,1019.34
2023-02-22T05:24:14.143Z,1019.34
2023-02-22T05:24:46.317Z,1019.13
2023-02-22T05:25:09.191Z,1019.64
2023-02-22T05:25:31.553Z,1019.64
2023-02-22T05:26:06.565Z,1019.64
2023-02-22T05:26:41.903Z,1019.34
2023-02-22T05:27:15.642Z,1019.34
2023-02-22T05:27:40.845Z,1019.23
2023-02-22T05:28:14.259Z,1019.23
2023-02-22T05:28:48.842Z,1019.23
2023-02-22T05:29:09.256Z,1019.23
2023-02-22T05:29:31.709Z,1019.23
2023-02-22T05:30:06.580Z,1019.23
2023-02-22T05:30:38.318Z,1019.13
2023-02-22T05:31:10.254Z,1019.13
2023-02-22T05:31:41.403Z,1019.23
2023-02-22T05:32:14.469Z,1019.23
2023-02-22T05:32:47.078Z,1019.34
2023-02-22T05:33:09.729Z,1019.23
2023-02-22T05:33:31.754Z,1019.23
2023-02-22T05:34:06.347Z,1019.23
2023-02-22T05:34:38.394Z,1019.34
2023-02-22T05:35:10.325Z,1019.34
2023-02-22T05:35:41.986Z,1019.23
2023-02-22T05:36:14.272Z,1019.23
2023-02-22T05:36:46.273Z,1019.23
2023-02-22T05:37:09.071Z,1019.23
2023-02-22T05:37:31.566Z,1019.23
2023-02-22T05:38:06.321Z,1019.23
2023-02-22T05:38:38.195Z,1019.23
2023-02-22T05:39:10.102Z,1019.23
2023-02-22T05:39:42.669Z,1019.03
2023-02-22T05:40:14.324Z,1019.03
2023-02-22T05:40:46.168Z,1019.13
2023-02-22T05:41:12.075Z,1019.34
2023-02-22T05:41:32.087Z,1019.34
2023-02-22T05:42:06.264Z,1019.34
2023-02-22T05:42:38.205Z,1019.13
2023-02-22T05:43:10.324Z,1019.13
2023-02-22T05:43:44.364Z,1019.13
2023-02-22T05:44:14.216Z,1019.13
2023-02-22T05:44:46.580Z,1019.23
2023-02-22T05:45:09.185Z,1019.13
2023-02-22T05:45:31.419Z,1019.13
2023-02-22T05:46:06.186Z,1019.13
2023-02-22T05:46:38.456Z,1019.23
2023-02-22T05:47:10.318Z,1019.23
2023-02-22T05:47:41.344Z,1019.23
2023-02-22T05:48:14.252Z,1019.23
2023-02-22T05:48:46.821Z,1019.13
2023-02-22T05:49:10.212Z,1019.13
2023-02-22T05:49:32.480Z,1019.13
2023-02-22T05:50:06.248Z,1019.13
2023-02-22T05:50:38.196Z,1019.13
2023-02-22T05:51:10.195Z,1019.13
2023-02-22T05:51:40.788Z,1019.34
2023-02-22T05:52:14.493Z,1019.34
2023-02-22T05:52:46.353Z,1019.13
2023-02-22T05:53:09.336Z,1019.03
2023-02-22T05:53:31.654Z,1019.03
2023-02-22T05:54:06.602Z,1019.03
2023-02-22T05:54:38.330Z,1019.23
2023-02-22T05:55:10.313Z,1019.23
2023-02-22T05:55:40.786Z,1019.13
2023-02-22T05:56:14.263Z,1019.13
2023-02-22T05:56:46.529Z,1019.13
2023-02-22T05:57:09.500Z,1018.93
2023-02-22T05:57:31.879Z,1018.93
2023-02-22T05:58:06.449Z,1018.93
2023-02-22T05:58:38.341Z,1019.13
2023-02-22T05:59:10.158Z,1019.13
2023-02-22T05:59:41.018Z,1019.03
2023-02-22T06:00:14.330Z,1019.03
2023-02-22T06:00:47.945Z,1019.13
2023-02-22T06:01:09.217Z,1018.93
2023-02-22T06:01:31.894Z,1018.93
2023-02-22T06:02:06.190Z,1018.93
2023-02-22T06:02:38.241Z,1018.93